sensor_id;sensor_type;location;lat;lon;timestamp;pressure;altitude;pressure_sealevel;temperature;humidity
73518;BME280;61766;60.318;25.044;2024-01-30T00:00:52;121735.40;;;-220.96;0.00
73518;BME280;61766;60.318;25.044;2024-01-30T00:03:18;121735.40;;;-220.48;0.00
73518;BME280;61766;60.318;25.044;2024-01-30T00:05:44;121735.40;;;-220.96;0.00
73518;BME280;61766;60.318;25.044;2024-01-30T00:08:09;121735.40;;;-220.48;0.00
73518;BME280;61766;60.318;25.044;2024-01-30T00:10:35;121735.40;;;-220.48;0.00
73518;BME280;61766;60.318;25.044;2024-01-30T00:13:00;121735.40;;;-220.48;0.00
73518;BME280;61766;60.318;25.044;2024-01-30T00:15:26;121735.40;;;-220.48;0.00
73518;BME280;61766;60.318;25.044;2024-01-30T00:17:51;121735.40;;;-220.96;0.00
73518;BME280;61766;60.318;25.044;2024-01-30T00:20:17;121735.40;;;-220.48;0.00
73518;BME280;61766;60.318;25.044;2024-01-30T00:22:43;121735.40;;;-220.48;0.00
73518;BME280;61766;60.318;25.044;2024-01-30T00:25:08;121735.40;;;-220.48;0.00
73518;BME280;61766;60.318;25.044;2024-01-30T00:27:33;121735.40;;;-220.48;0.00
73518;BME280;61766;60.318;25.044;2024-01-30T00:29:58;121735.40;;;-220.48;0.00
73518;BME280;61766;60.318;25.044;2024-01-30T00:32:23;121735.40;;;-220.96;0.00
73518;BME280;61766;60.318;25.044;2024-01-30T00:34:49;121735.40;;;-220.96;0.00
73518;BME280;61766;60.318;25.044;2024-01-30T00:37:14;121735.40;;;-220.48;0.00
73518;BME280;61766;60.318;25.044;2024-01-30T00:39:39;121735.40;;;-220.96;0.00
73518;BME280;61766;60.318;25.044;2024-01-30T00:42:05;121735.40;;;-220.48;0.00
73518;BME280;61766;60.318;25.044;2024-01-30T00:44:30;121735.40;;;-220.72;0.00
73518;BME280;61766;60.318;25.044;2024-01-30T00:46:55;121735.40;;;-220.48;0.00
73518;BME280;61766;60.318;25.044;2024-01-30T00:49:20;121735.40;;;-220.48;0.00
73518;BME280;61766;60.318;25.044;2024-01-30T00:51:45;121735.40;;;-220.96;0.00
73518;BME280;61766;60.318;25.044;2024-01-30T00:54:10;121735.40;;;-220.72;0.00
73518;BME280;61766;60.318;25.044;2024-01-30T00:56:36;121735.40;;;-220.72;0.00
73518;BME280;61766;60.318;25.044;2024-01-30T00:59:02;121735.40;;;-220.72;0.00
73518;BME280;61766;60.318;25.044;2024-01-30T01:01:27;121735.40;;;-220.72;0.00
73518;BME280;61766;60.318;25.044;2024-01-30T01:03:53;121735.40;;;-220.72;0.00
73518;BME280;61766;60.318;25.044;2024-01-30T01:06:18;121735.40;;;-220.96;0.00
73518;BME280;61766;60.318;25.044;2024-01-30T01:08:43;121735.40;;;-220.96;0.00
73518;BME280;61766;60.318;25.044;2024-01-30T01:11:09;121735.40;;;-220.96;0.00
73518;BME280;61766;60.318;25.044;2024-01-30T01:13:34;121735.40;;;-220.96;0.00
73518;BME280;61766;60.318;25.044;2024-01-30T01:15:59;121735.40;;;-220.96;0.00
73518;BME280;61766;60.318;25.044;2024-01-30T01:18:24;121735.40;;;-220.72;0.00
73518;BME280;61766;60.318;25.044;2024-01-30T01:20:49;121735.40;;;-220.96;0.00
73518;BME280;61766;60.318;25.044;2024-01-30T01:23:15;121735.40;;;-220.96;0.00
73518;BME280;61766;60.318;25.044;2024-01-30T01:25:40;121735.40;;;-220.96;0.00
73518;BME280;61766;60.318;25.044;2024-01-30T01:28:05;121735.40;;;-220.96;0.00
73518;BME280;61766;60.318;25.044;2024-01-30T01:30:31;121735.40;;;-220.96;0.00
73518;BME280;61766;60.318;25.044;2024-01-30T01:32:56;121735.40;;;-220.96;0.00
73518;BME280;61766;60.318;25.044;2024-01-30T01:35:22;121735.40;;;-220.48;0.00
73518;BME280;61766;60.318;25.044;2024-01-30T01:37:47;121735.40;;;-220.96;0.00
73518;BME280;61766;60.318;25.044;2024-01-30T01:40:13;121735.40;;;-220.48;0.00
73518;BME280;61766;60.318;25.044;2024-01-30T01:42:39;121735.40;;;-220.72;0.00
73518;BME280;61766;60.318;25.044;2024-01-30T01:45:04;121735.40;;;-220.96;0.00
73518;BME280;61766;60.318;25.044;2024-01-30T01:47:29;121735.40;;;-220.96;0.00
73518;BME280;61766;60.318;25.044;2024-01-30T01:49:55;121735.40;;;-220.72;0.00
73518;BME280;61766;60.318;25.044;2024-01-30T01:52:20;121735.40;;;-220.96;0.00
73518;BME280;61766;60.318;25.044;2024-01-30T01:54:45;121735.40;;;-220.96;0.00
73518;BME280;61766;60.318;25.044;2024-01-30T01:57:11;121735.40;;;-220.96;0.00
73518;BME280;61766;60.318;25.044;2024-01-30T01:59:37;121735.40;;;-220.96;0.00
73518;BME280;61766;60.318;25.044;2024-01-30T02:02:04;121735.40;;;-220.96;0.00
73518;BME280;61766;60.318;25.044;2024-01-30T02:04:28;121735.40;;;-220.96;0.00
73518;BME280;61766;60.318;25.044;2024-01-30T02:06:53;121735.40;;;-220.96;0.00
73518;BME280;61766;60.318;25.044;2024-01-30T02:09:19;121735.40;;;-220.96;0.00
73518;BME280;61766;60.318;25.044;2024-01-30T02:11:44;121735.40;;;-220.96;0.00
73518;BME280;61766;60.318;25.044;2024-01-30T02:14:09;121735.40;;;-220.96;0.00
73518;BME280;61766;60.318;25.044;2024-01-30T02:16:34;121735.40;;;-220.96;0.00
73518;BME280;61766;60.318;25.044;2024-01-30T02:19:00;121735.40;;;-220.96;0.00
73518;BME280;61766;60.318;25.044;2024-01-30T02:21:26;121735.40;;;-220.72;0.00
73518;BME280;61766;60.318;25.044;2024-01-30T02:23:51;121735.40;;;-220.72;0.00
73518;BME280;61766;60.318;25.044;2024-01-30T02:26:16;121735.40;;;-220.96;0.00
73518;BME280;61766;60.318;25.044;2024-01-30T02:28:42;121735.40;;;-220.96;0.00
73518;BME280;61766;60.318;25.044;2024-01-30T02:31:07;121735.40;;;-220.96;0.00
73518;BME280;61766;60.318;25.044;2024-01-30T02:33:33;121735.40;;;-220.48;0.00
73518;BME280;61766;60.318;25.044;2024-01-30T02:35:58;121735.40;;;-220.48;0.00
73518;BME280;61766;60.318;25.044;2024-01-30T02:38:24;121735.40;;;-220.72;0.00
73518;BME280;61766;60.318;25.044;2024-01-30T02:40:49;121735.40;;;-220.72;0.00
73518;BME280;61766;60.318;25.044;2024-01-30T02:43:15;121735.40;;;-220.96;0.00
73518;BME280;61766;60.318;25.044;2024-01-30T02:45:41;121735.40;;;-220.48;0.00
73518;BME280;61766;60.318;25.044;2024-01-30T02:48:06;121735.40;;;-220.96;0.00
73518;BME280;61766;60.318;25.044;2024-01-30T02:50:31;121735.40;;;-220.48;0.00
73518;BME280;61766;60.318;25.044;2024-01-30T02:52:57;121735.40;;;-220.96;0.00
73518;BME280;61766;60.318;25.044;2024-01-30T02:55:22;121735.40;;;-220.96;0.00
73518;BME280;61766;60.318;25.044;2024-01-30T02:57:48;121735.40;;;-220.72;0.00
73518;BME280;61766;60.318;25.044;2024-01-30T03:00:14;121735.40;;;-220.96;0.00
73518;BME280;61766;60.318;25.044;2024-01-30T03:02:40;121735.40;;;-220.96;0.00
73518;BME280;61766;60.318;25.044;2024-01-30T03:05:05;121735.40;;;-220.96;0.00
73518;BME280;61766;60.318;25.044;2024-01-30T03:07:30;121735.40;;;-220.96;0.00
73518;BME280;61766;60.318;25.044;2024-01-30T03:09:56;121735.40;;;-220.72;0.00
73518;BME280;61766;60.318;25.044;2024-01-30T03:12:22;121735.40;;;-220.96;0.00
73518;BME280;61766;60.318;25.044;2024-01-30T03:14:47;121735.40;;;-220.48;0.00
73518;BME280;61766;60.318;25.044;2024-01-30T03:17:12;121735.40;;;-220.96;0.00
73518;BME280;61766;60.318;25.044;2024-01-30T03:19:37;121735.40;;;-220.96;0.00
73518;BME280;61766;60.318;25.044;2024-01-30T03:22:03;121735.40;;;-220.96;0.00
73518;BME280;61766;60.318;25.044;2024-01-30T03:24:28;121735.40;;;-220.96;0.00
73518;BME280;61766;60.318;25.044;2024-01-30T03:26:53;121735.40;;;-220.96;0.00
73518;BME280;61766;60.318;25.044;2024-01-30T03:29:19;121735.40;;;-220.72;0.00
73518;BME280;61766;60.318;25.044;2024-01-30T03:31:44;121735.40;;;-220.72;0.00
73518;BME280;61766;60.318;25.044;2024-01-30T03:34:10;121735.40;;;-220.96;0.00
73518;BME280;61766;60.318;25.044;2024-01-30T03:36:36;121735.40;;;-220.96;0.00
73518;BME280;61766;60.318;25.044;2024-01-30T03:39:01;121735.40;;;-220.96;0.00
73518;BME280;61766;60.318;25.044;2024-01-30T03:41:25;121735.40;;;-220.96;0.00
73518;BME280;61766;60.318;25.044;2024-01-30T03:43:50;121735.40;;;-220.96;0.00
73518;BME280;61766;60.318;25.044;2024-01-30T03:46:16;121735.40;;;-220.72;0.00
73518;BME280;61766;60.318;25.044;2024-01-30T03:48:41;121735.40;;;-220.96;0.00
73518;BME280;61766;60.318;25.044;2024-01-30T03:51:07;121735.40;;;-220.72;0.00
73518;BME280;61766;60.318;25.044;2024-01-30T03:53:33;121735.40;;;-220.48;0.00
73518;BME280;61766;60.318;25.044;2024-01-30T03:55:58;121735.40;;;-220.72;0.00
73518;BME280;61766;60.318;25.044;2024-01-30T03:58:24;121735.40;;;-220.48;0.00
73518;BME280;61766;60.318;25.044;2024-01-30T04:00:49;121735.40;;;-220.48;0.00
73518;BME280;61766;60.318;25.044;2024-01-30T04:03:15;121735.40;;;-220.72;0.00
73518;BME280;61766;60.318;25.044;2024-01-30T04:05:40;121735.40;;;-220.96;0.00
73518;BME280;61766;60.318;25.044;2024-01-30T04:08:06;121735.40;;;-220.72;0.00
73518;BME280;61766;60.318;25.044;2024-01-30T04:10:31;121735.40;;;-220.72;0.00
73518;BME280;61766;60.318;25.044;2024-01-30T04:12:57;121735.40;;;-220.48;0.00
73518;BME280;61766;60.318;25.044;2024-01-30T04:15:23;121735.40;;;-220.48;0.00
73518;BME280;61766;60.318;25.044;2024-01-30T04:17:48;121735.40;;;-220.72;0.00
73518;BME280;61766;60.318;25.044;2024-01-30T04:20:17;121735.40;;;-220.48;0.00
73518;BME280;61766;60.318;25.044;2024-01-30T04:22:40;121735.40;;;-220.48;0.00
73518;BME280;61766;60.318;25.044;2024-01-30T04:25:06;121735.40;;;-220.48;0.00
73518;BME280;61766;60.318;25.044;2024-01-30T04:27:31;121735.40;;;-220.48;0.00
73518;BME280;61766;60.318;25.044;2024-01-30T04:29:56;121735.40;;;-220.48;0.00
73518;BME280;61766;60.318;25.044;2024-01-30T04:32:22;121735.40;;;-220.48;0.00
73518;BME280;61766;60.318;25.044;2024-01-30T04:34:48;121735.40;;;-220.48;0.00
73518;BME280;61766;60.318;25.044;2024-01-30T04:37:14;121735.40;;;-220.72;0.00
73518;BME280;61766;60.318;25.044;2024-01-30T04:39:39;121735.40;;;-220.48;0.00
73518;BME280;61766;60.318;25.044;2024-01-30T04:42:04;121735.40;;;-220.48;0.00
73518;BME280;61766;60.318;25.044;2024-01-30T04:44:30;121735.40;;;-220.48;0.00
73518;BME280;61766;60.318;25.044;2024-01-30T04:46:56;121735.40;;;-220.48;0.00
73518;BME280;61766;60.318;25.044;2024-01-30T04:49:21;121735.40;;;-220.24;0.00
73518;BME280;61766;60.318;25.044;2024-01-30T04:51:47;121735.40;;;-220.24;0.00
73518;BME280;61766;60.318;25.044;2024-01-30T04:54:12;121735.40;;;-220.24;0.00
73518;BME280;61766;60.318;25.044;2024-01-30T04:56:38;121735.40;;;-220.24;0.00
73518;BME280;61766;60.318;25.044;2024-01-30T04:59:03;121735.40;;;-220.24;0.00
73518;BME280;61766;60.318;25.044;2024-01-30T05:01:29;121735.40;;;-220.48;0.00
73518;BME280;61766;60.318;25.044;2024-01-30T05:03:54;121735.40;;;-220.48;0.00
73518;BME280;61766;60.318;25.044;2024-01-30T05:06:25;121735.40;;;-220.24;0.00
73518;BME280;61766;60.318;25.044;2024-01-30T05:08:45;121735.40;;;-220.24;0.00
73518;BME280;61766;60.318;25.044;2024-01-30T05:11:11;121735.40;;;-220.00;0.00
73518;BME280;61766;60.318;25.044;2024-01-30T05:13:37;121735.40;;;-220.24;0.00
73518;BME280;61766;60.318;25.044;2024-01-30T05:16:02;121735.40;;;-220.00;0.00
73518;BME280;61766;60.318;25.044;2024-01-30T05:18:28;121735.40;;;-220.00;0.00
73518;BME280;61766;60.318;25.044;2024-01-30T05:20:54;121735.40;;;-220.24;0.00
73518;BME280;61766;60.318;25.044;2024-01-30T05:23:20;121735.40;;;-220.24;0.00
73518;BME280;61766;60.318;25.044;2024-01-30T05:25:45;121735.40;;;-220.00;0.00
73518;BME280;61766;60.318;25.044;2024-01-30T05:28:11;121735.40;;;-220.00;0.00
73518;BME280;61766;60.318;25.044;2024-01-30T05:30:37;121735.40;;;-220.00;0.00
73518;BME280;61766;60.318;25.044;2024-01-30T05:33:03;121735.40;;;-220.00;0.00
73518;BME280;61766;60.318;25.044;2024-01-30T05:35:28;121735.40;;;-220.00;0.00
73518;BME280;61766;60.318;25.044;2024-01-30T05:37:53;121735.40;;;-220.00;0.00
73518;BME280;61766;60.318;25.044;2024-01-30T05:40:19;121735.40;;;-220.24;0.00
73518;BME280;61766;60.318;25.044;2024-01-30T05:42:45;121735.40;;;-220.00;0.00
73518;BME280;61766;60.318;25.044;2024-01-30T05:45:10;121735.40;;;-220.00;0.00
73518;BME280;61766;60.318;25.044;2024-01-30T05:47:35;121735.40;;;-220.24;0.00
73518;BME280;61766;60.318;25.044;2024-01-30T05:50:01;121735.40;;;-220.00;0.00
73518;BME280;61766;60.318;25.044;2024-01-30T05:52:26;121735.40;;;-220.00;0.00
73518;BME280;61766;60.318;25.044;2024-01-30T05:54:52;121735.40;;;-220.00;0.00
73518;BME280;61766;60.318;25.044;2024-01-30T05:57:18;121735.40;;;-220.00;0.00
73518;BME280;61766;60.318;25.044;2024-01-30T05:59:44;121735.40;;;-220.00;0.00
73518;BME280;61766;60.318;25.044;2024-01-30T06:02:10;121735.40;;;-220.00;0.00
73518;BME280;61766;60.318;25.044;2024-01-30T06:04:34;121735.40;;;-220.00;0.00
73518;BME280;61766;60.318;25.044;2024-01-30T06:06:59;121735.40;;;-220.00;0.00
73518;BME280;61766;60.318;25.044;2024-01-30T06:09:25;121735.40;;;-220.00;0.00
73518;BME280;61766;60.318;25.044;2024-01-30T06:11:50;121735.40;;;-220.00;0.00
73518;BME280;61766;60.318;25.044;2024-01-30T06:14:16;121735.40;;;-220.00;0.00
73518;BME280;61766;60.318;25.044;2024-01-30T06:16:42;121735.40;;;-220.24;0.00
73518;BME280;61766;60.318;25.044;2024-01-30T06:19:07;121735.40;;;-220.00;0.00
73518;BME280;61766;60.318;25.044;2024-01-30T06:21:33;121735.40;;;-220.00;0.00
73518;BME280;61766;60.318;25.044;2024-01-30T06:23:59;121735.40;;;-220.00;0.00
73518;BME280;61766;60.318;25.044;2024-01-30T06:26:24;121735.40;;;-220.00;0.00
73518;BME280;61766;60.318;25.044;2024-01-30T06:28:50;121735.40;;;-220.00;0.00
73518;BME280;61766;60.318;25.044;2024-01-30T06:31:15;121735.40;;;-220.00;0.00
73518;BME280;61766;60.318;25.044;2024-01-30T06:33:41;121735.40;;;-220.00;0.00
73518;BME280;61766;60.318;25.044;2024-01-30T06:36:07;121735.40;;;-220.00;0.00
73518;BME280;61766;60.318;25.044;2024-01-30T06:38:32;121735.40;;;-220.00;0.00
73518;BME280;61766;60.318;25.044;2024-01-30T06:40:57;121735.40;;;-220.24;0.00
73518;BME280;61766;60.318;25.044;2024-01-30T06:43:23;121735.40;;;-220.00;0.00
73518;BME280;61766;60.318;25.044;2024-01-30T06:45:48;121735.40;;;-220.00;0.00
73518;BME280;61766;60.318;25.044;2024-01-30T06:48:14;121735.40;;;-219.53;0.00
73518;BME280;61766;60.318;25.044;2024-01-30T06:50:39;121735.40;;;-219.77;0.00
73518;BME280;61766;60.318;25.044;2024-01-30T06:53:04;121735.40;;;-219.77;0.00
73518;BME280;61766;60.318;25.044;2024-01-30T06:55:30;121735.40;;;-219.77;0.00
73518;BME280;61766;60.318;25.044;2024-01-30T06:57:55;121735.40;;;-220.00;0.00
73518;BME280;61766;60.318;25.044;2024-01-30T07:00:21;121735.40;;;-220.00;0.00
73518;BME280;61766;60.318;25.044;2024-01-30T07:02:46;121735.40;;;-220.00;0.00
73518;BME280;61766;60.318;25.044;2024-01-30T07:05:13;121735.40;;;-220.00;0.00
73518;BME280;61766;60.318;25.044;2024-01-30T07:07:37;121735.40;;;-220.00;0.00
73518;BME280;61766;60.318;25.044;2024-01-30T07:10:03;121735.40;;;-220.00;0.00
73518;BME280;61766;60.318;25.044;2024-01-30T07:12:30;121735.40;;;-220.00;0.00
73518;BME280;61766;60.318;25.044;2024-01-30T07:14:55;121735.40;;;-220.00;0.00
73518;BME280;61766;60.318;25.044;2024-01-30T07:17:20;121735.40;;;-220.00;0.00
73518;BME280;61766;60.318;25.044;2024-01-30T07:19:45;121735.40;;;-220.00;0.00
73518;BME280;61766;60.318;25.044;2024-01-30T07:22:11;121735.40;;;-220.00;0.00
73518;BME280;61766;60.318;25.044;2024-01-30T07:24:41;121735.40;;;-220.00;0.00
73518;BME280;61766;60.318;25.044;2024-01-30T07:27:02;121735.40;;;-219.77;0.00
73518;BME280;61766;60.318;25.044;2024-01-30T07:29:27;121735.40;;;-220.00;0.00
73518;BME280;61766;60.318;25.044;2024-01-30T07:31:52;121735.40;;;-219.53;0.00
73518;BME280;61766;60.318;25.044;2024-01-30T07:34:18;121735.40;;;-219.77;0.00
73518;BME280;61766;60.318;25.044;2024-01-30T07:36:44;121735.40;;;-220.00;0.00
73518;BME280;61766;60.318;25.044;2024-01-30T07:39:09;121735.40;;;-219.77;0.00
73518;BME280;61766;60.318;25.044;2024-01-30T07:41:34;121735.40;;;-219.77;0.00
73518;BME280;61766;60.318;25.044;2024-01-30T07:43:59;121735.40;;;-219.77;0.00
73518;BME280;61766;60.318;25.044;2024-01-30T07:46:25;121735.40;;;-220.00;0.00
73518;BME280;61766;60.318;25.044;2024-01-30T07:48:51;121735.40;;;-219.53;0.00
73518;BME280;61766;60.318;25.044;2024-01-30T07:51:16;121735.40;;;-220.00;0.00
73518;BME280;61766;60.318;25.044;2024-01-30T07:53:41;121735.40;;;-219.77;0.00
73518;BME280;61766;60.318;25.044;2024-01-30T07:56:08;121735.40;;;-220.00;0.00
73518;BME280;61766;60.318;25.044;2024-01-30T07:58:32;121735.40;;;-220.00;0.00
73518;BME280;61766;60.318;25.044;2024-01-30T08:00:58;121735.40;;;-219.77;0.00
73518;BME280;61766;60.318;25.044;2024-01-30T08:03:23;121735.40;;;-219.77;0.00
73518;BME280;61766;60.318;25.044;2024-01-30T08:05:49;121735.40;;;-219.77;0.00
73518;BME280;61766;60.318;25.044;2024-01-30T08:08:14;121735.40;;;-220.00;0.00
73518;BME280;61766;60.318;25.044;2024-01-30T08:10:40;121735.40;;;-220.00;0.00
73518;BME280;61766;60.318;25.044;2024-01-30T08:13:06;121735.40;;;-220.00;0.00
73518;BME280;61766;60.318;25.044;2024-01-30T08:15:32;121735.40;;;-220.00;0.00
73518;BME280;61766;60.318;25.044;2024-01-30T08:17:58;121735.40;;;-219.77;0.00
73518;BME280;61766;60.318;25.044;2024-01-30T08:20:23;121735.40;;;-220.00;0.00
73518;BME280;61766;60.318;25.044;2024-01-30T08:22:48;121735.40;;;-220.00;0.00
73518;BME280;61766;60.318;25.044;2024-01-30T08:25:14;121735.40;;;-220.00;0.00
73518;BME280;61766;60.318;25.044;2024-01-30T08:27:39;121735.40;;;-220.00;0.00
73518;BME280;61766;60.318;25.044;2024-01-30T08:30:05;121735.40;;;-220.00;0.00
73518;BME280;61766;60.318;25.044;2024-01-30T08:32:30;121735.40;;;-220.00;0.00
73518;BME280;61766;60.318;25.044;2024-01-30T08:34:55;121735.40;;;-220.00;0.00
73518;BME280;61766;60.318;25.044;2024-01-30T08:37:21;121735.40;;;-220.00;0.00
73518;BME280;61766;60.318;25.044;2024-01-30T08:39:47;121735.40;;;-219.53;0.00
73518;BME280;61766;60.318;25.044;2024-01-30T08:42:13;121735.40;;;-220.00;0.00
73518;BME280;61766;60.318;25.044;2024-01-30T08:44:38;121735.40;;;-220.00;0.00
73518;BME280;61766;60.318;25.044;2024-01-30T08:47:04;121735.40;;;-220.24;0.00
73518;BME280;61766;60.318;25.044;2024-01-30T08:49:30;121735.40;;;-220.00;0.00
73518;BME280;61766;60.318;25.044;2024-01-30T08:51:55;121735.40;;;-220.00;0.00
73518;BME280;61766;60.318;25.044;2024-01-30T08:54:21;121735.40;;;-220.00;0.00
73518;BME280;61766;60.318;25.044;2024-01-30T08:56:46;121735.40;;;-220.24;0.00
73518;BME280;61766;60.318;25.044;2024-01-30T08:59:12;121735.40;;;-220.00;0.00
73518;BME280;61766;60.318;25.044;2024-01-30T09:01:38;121735.40;;;-220.00;0.00
73518;BME280;61766;60.318;25.044;2024-01-30T09:04:03;121735.40;;;-220.00;0.00
73518;BME280;61766;60.318;25.044;2024-01-30T09:06:28;121735.40;;;-220.00;0.00
73518;BME280;61766;60.318;25.044;2024-01-30T09:08:54;121735.40;;;-220.00;0.00
73518;BME280;61766;60.318;25.044;2024-01-30T09:11:20;121735.40;;;-219.77;0.00
73518;BME280;61766;60.318;25.044;2024-01-30T09:13:45;121735.40;;;-220.00;0.00
73518;BME280;61766;60.318;25.044;2024-01-30T09:16:10;121735.40;;;-220.24;0.00
73518;BME280;61766;60.318;25.044;2024-01-30T09:18:36;121735.40;;;-220.00;0.00
73518;BME280;61766;60.318;25.044;2024-01-30T09:21:02;121735.40;;;-220.24;0.00
73518;BME280;61766;60.318;25.044;2024-01-30T09:23:28;121735.40;;;-220.00;0.00
73518;BME280;61766;60.318;25.044;2024-01-30T09:25:53;121735.40;;;-220.00;0.00
73518;BME280;61766;60.318;25.044;2024-01-30T09:28:18;121735.40;;;-220.00;0.00
73518;BME280;61766;60.318;25.044;2024-01-30T09:30:43;121735.40;;;-220.00;0.00
73518;BME280;61766;60.318;25.044;2024-01-30T09:33:09;121735.40;;;-220.00;0.00
73518;BME280;61766;60.318;25.044;2024-01-30T09:35:34;121735.40;;;-220.24;0.00
73518;BME280;61766;60.318;25.044;2024-01-30T09:38:00;121735.40;;;-220.24;0.00
73518;BME280;61766;60.318;25.044;2024-01-30T09:40:25;121735.40;;;-220.24;0.00
73518;BME280;61766;60.318;25.044;2024-01-30T09:42:51;121735.40;;;-220.24;0.00
73518;BME280;61766;60.318;25.044;2024-01-30T09:45:17;121735.40;;;-220.24;0.00
73518;BME280;61766;60.318;25.044;2024-01-30T09:47:44;121735.40;;;-220.00;0.00
73518;BME280;61766;60.318;25.044;2024-01-30T09:50:09;121735.40;;;-220.24;0.00
73518;BME280;61766;60.318;25.044;2024-01-30T09:52:33;121735.40;;;-220.48;0.00
73518;BME280;61766;60.318;25.044;2024-01-30T09:54:59;121735.40;;;-220.24;0.00
73518;BME280;61766;60.318;25.044;2024-01-30T09:57:24;121735.40;;;-220.48;0.00
73518;BME280;61766;60.318;25.044;2024-01-30T09:59:50;121735.40;;;-220.24;0.00
73518;BME280;61766;60.318;25.044;2024-01-30T10:02:16;121735.40;;;-220.48;0.00
73518;BME280;61766;60.318;25.044;2024-01-30T10:04:41;121735.40;;;-220.24;0.00
73518;BME280;61766;60.318;25.044;2024-01-30T10:07:06;121735.40;;;-220.00;0.00
73518;BME280;61766;60.318;25.044;2024-01-30T10:09:34;121735.40;;;-220.24;0.00
73518;BME280;61766;60.318;25.044;2024-01-30T10:11:57;121735.40;;;-220.00;0.00
73518;BME280;61766;60.318;25.044;2024-01-30T10:14:22;121735.40;;;-220.24;0.00
73518;BME280;61766;60.318;25.044;2024-01-30T10:16:49;121735.40;;;-220.24;0.00
73518;BME280;61766;60.318;25.044;2024-01-30T10:19:13;121735.40;;;-220.24;0.00
73518;BME280;61766;60.318;25.044;2024-01-30T10:21:38;121735.40;;;-220.24;0.00
73518;BME280;61766;60.318;25.044;2024-01-30T10:24:04;121735.40;;;-220.48;0.00
73518;BME280;61766;60.318;25.044;2024-01-30T10:26:29;121735.40;;;-220.48;0.00
73518;BME280;61766;60.318;25.044;2024-01-30T10:28:54;121735.40;;;-220.24;0.00
73518;BME280;61766;60.318;25.044;2024-01-30T10:31:20;121735.40;;;-220.24;0.00
73518;BME280;61766;60.318;25.044;2024-01-30T10:33:46;121735.40;;;-220.48;0.00
73518;BME280;61766;60.318;25.044;2024-01-30T10:36:12;121735.40;;;-220.48;0.00
73518;BME280;61766;60.318;25.044;2024-01-30T10:38:36;121735.40;;;-220.24;0.00
73518;BME280;61766;60.318;25.044;2024-01-30T10:41:02;121735.40;;;-220.24;0.00
73518;BME280;61766;60.318;25.044;2024-01-30T10:43:30;121735.40;;;-220.48;0.00
73518;BME280;61766;60.318;25.044;2024-01-30T10:45:52;121735.40;;;-220.48;0.00
73518;BME280;61766;60.318;25.044;2024-01-30T10:48:18;121735.40;;;-220.24;0.00
73518;BME280;61766;60.318;25.044;2024-01-30T10:50:43;121735.40;;;-220.72;0.00
73518;BME280;61766;60.318;25.044;2024-01-30T10:53:09;121735.40;;;-220.72;0.00
73518;BME280;61766;60.318;25.044;2024-01-30T10:55:34;121735.40;;;-220.72;0.00
73518;BME280;61766;60.318;25.044;2024-01-30T10:58:00;121735.40;;;-220.48;0.00
73518;BME280;61766;60.318;25.044;2024-01-30T11:00:26;121735.40;;;-220.48;0.00
73518;BME280;61766;60.318;25.044;2024-01-30T11:02:51;121735.40;;;-220.72;0.00
73518;BME280;61766;60.318;25.044;2024-01-30T11:07:43;121735.40;;;-220.96;0.00
73518;BME280;61766;60.318;25.044;2024-01-30T11:10:08;121735.40;;;-220.96;0.00
73518;BME280;61766;60.318;25.044;2024-01-30T11:12:38;121735.40;;;-220.96;0.00
73518;BME280;61766;60.318;25.044;2024-01-30T11:15:08;121735.40;;;-220.96;0.00
73518;BME280;61766;60.318;25.044;2024-01-30T11:17:27;121735.40;;;-220.96;0.00
73518;BME280;61766;60.318;25.044;2024-01-30T11:19:49;121735.40;;;-220.96;0.00
73518;BME280;61766;60.318;25.044;2024-01-30T11:22:14;121735.40;;;-220.96;0.00
73518;BME280;61766;60.318;25.044;2024-01-30T11:24:42;121735.40;;;-221.44;0.00
73518;BME280;61766;60.318;25.044;2024-01-30T11:27:08;121735.40;;;-221.20;0.00
73518;BME280;61766;60.318;25.044;2024-01-30T11:29:31;121735.40;;;-220.96;0.00
73518;BME280;61766;60.318;25.044;2024-01-30T11:31:56;121735.40;;;-220.96;0.00
73518;BME280;61766;60.318;25.044;2024-01-30T11:34:21;121735.40;;;-220.96;0.00
73518;BME280;61766;60.318;25.044;2024-01-30T11:36:48;121735.40;;;-220.96;0.00
73518;BME280;61766;60.318;25.044;2024-01-30T11:39:12;121735.40;;;-220.96;0.00
73518;BME280;61766;60.318;25.044;2024-01-30T11:41:40;121735.40;;;-221.20;0.00
73518;BME280;61766;60.318;25.044;2024-01-30T11:44:03;121735.40;;;-220.96;0.00
73518;BME280;61766;60.318;25.044;2024-01-30T11:46:28;121735.40;;;-221.44;0.00
73518;BME280;61766;60.318;25.044;2024-01-30T11:48:54;121735.40;;;-220.96;0.00
73518;BME280;61766;60.318;25.044;2024-01-30T11:51:20;121735.40;;;-220.96;0.00
73518;BME280;61766;60.318;25.044;2024-01-30T11:53:49;121735.40;;;-221.20;0.00
73518;BME280;61766;60.318;25.044;2024-01-30T11:56:12;121735.40;;;-221.20;0.00
73518;BME280;61766;60.318;25.044;2024-01-30T11:58:36;121735.40;;;-221.20;0.00
73518;BME280;61766;60.318;25.044;2024-01-30T12:01:02;121735.40;;;-221.20;0.00
73518;BME280;61766;60.318;25.044;2024-01-30T12:03:27;121735.40;;;-221.20;0.00
73518;BME280;61766;60.318;25.044;2024-01-30T12:05:58;121735.40;;;-221.44;0.00
73518;BME280;61766;60.318;25.044;2024-01-30T12:08:19;121735.40;;;-221.44;0.00
73518;BME280;61766;60.318;25.044;2024-01-30T12:10:44;121735.40;;;-221.44;0.00
73518;BME280;61766;60.318;25.044;2024-01-30T12:13:09;121735.40;;;-221.44;0.00
73518;BME280;61766;60.318;25.044;2024-01-30T12:15:35;121735.40;;;-221.44;0.00
73518;BME280;61766;60.318;25.044;2024-01-30T12:18:05;121735.40;;;-221.44;0.00
73518;BME280;61766;60.318;25.044;2024-01-30T12:20:26;121735.40;;;-221.44;0.00
73518;BME280;61766;60.318;25.044;2024-01-30T12:22:52;121735.40;;;-221.68;0.00